Time;durP1;ratioP1;P1;durP2;ratioP2;P2;SDS_P1;SDS_P2;PMS_P1;PMS_P2;Temp;Humidity;BMP_temperature;BMP_pressure;BME280_temperature;BME280_humidity;BME280_pressure;Samples;Min_cycle;Max_cycle;Signal;HPM_P1;HPM_P2
2023/01/18 00:00:51;;;;;;;21.83;9.85;;;;;;;;;;4965091;28;20046;-78
2023/01/18 00:03:17;;;;;;;19.90;9.57;;;;;;;;;;4942406;28;20031;-78
2023/01/18 00:05:42;;;;;;;20.98;9.75;;;;;;;;;;4950007;28;20073;-78
2023/01/18 00:08:09;;;;;;;27.48;10.73;;;;;;;;;;4932981;29;20031;-78
2023/01/18 00:10:34;;;;;;;23.38;10.15;;;;;;;;;;4933119;29;20485;-78
2023/01/18 00:13:00;;;;;;;24.63;10.13;;;;;;;;;;4950391;28;20046;-78
2023/01/18 00:15:25;;;;;;;23.50;10.20;;;;;;;;;;4948692;28;20035;-78
2023/01/18 00:17:51;;;;;;;24.70;9.93;;;;;;;;;;4944681;28;20046;-78
2023/01/18 00:20:18;;;;;;;21.58;10.07;;;;;;;;;;4949469;28;20046;-78
2023/01/18 00:22:44;;;;;;;19.23;10.02;;;;;;;;;;4949723;28;20451;-78
2023/01/18 00:25:10;;;;;;;27.52;11.57;;;;;;;;;;4923526;29;20028;-78
2023/01/18 00:27:36;;;;;;;20.13;9.32;;;;;;;;;;4930856;29;20074;-78
2023/01/18 00:30:06;;;;;;;25.10;9.50;;;;;;;;;;4930563;29;20063;-79
2023/01/18 00:32:32;;;;;;;23.38;11.82;;;;;;;;;;4930803;29;20524;-78
2023/01/18 00:34:57;;;;;;;22.67;10.35;;;;;;;;;;4930287;29;20497;-78
2023/01/18 00:37:24;;;;;;;29.63;11.75;;;;;;;;;;4942037;28;20023;-78
2023/01/18 00:39:49;;;;;;;25.80;10.75;;;;;;;;;;4944068;28;20050;-78
2023/01/18 00:44:58;;;;;;;24.20;10.63;;;;;;;;;;4951530;28;20551;-79
2023/01/18 00:47:24;;;;;;;25.08;11.52;;;;;;;;;;4950779;28;20046;-79
2023/01/18 00:49:49;;;;;;;29.23;10.43;;;;;;;;;;4968271;28;20403;-78
2023/01/18 00:52:14;;;;;;;27.38;11.43;;;;;;;;;;4986381;28;20034;-79
2023/01/18 00:54:39;;;;;;;22.13;10.55;;;;;;;;;;4987824;28;20116;-78
2023/01/18 00:57:05;;;;;;;27.98;10.05;;;;;;;;;;4988292;28;20030;-78
2023/01/18 00:59:30;;;;;;;23.25;10.27;;;;;;;;;;4987909;28;20169;-79
2023/01/18 01:01:56;;;;;;;24.00;11.02;;;;;;;;;;4988462;28;20399;-79
2023/01/18 01:07:05;;;;;;;18.77;10.48;;;;;;;;;;4949368;28;20054;-78
2023/01/18 01:09:30;;;;;;;21.75;10.48;;;;;;;;;;4948877;28;20039;-78
2023/01/18 01:26:11;;;;;;;27.23;11.63;;;;;;;;;;4961980;28;20419;-78
2023/01/18 01:28:39;;;;;;;20.13;9.82;;;;;;;;;;4966894;28;20744;-78
2023/01/18 01:31:06;;;;;;;20.90;10.20;;;;;;;;;;4968017;28;20051;-78
2023/01/18 01:33:33;;;;;;;28.65;10.25;;;;;;;;;;4966530;28;20027;-79
2023/01/18 01:36:02;;;;;;;20.08;9.30;;;;;;;;;;4964972;28;20479;-79
2023/01/18 01:38:28;;;;;;;19.60;8.95;;;;;;;;;;4967569;28;20122;-78
2023/01/18 01:41:03;;;;;;;25.50;8.93;;;;;;;;;;4968010;28;20500;-78
2023/01/18 01:43:48;;;;;;;22.70;9.25;;;;;;;;;;4954384;28;20094;-78
2023/01/18 01:46:28;;;;;;;17.15;8.50;;;;;;;;;;4954211;28;20051;-78
2023/01/18 01:49:11;;;;;;;17.40;9.02;;;;;;;;;;4948491;28;20035;-78
2023/01/18 01:51:43;;;;;;;21.37;9.57;;;;;;;;;;4956417;28;20030;-78
2023/01/18 01:54:15;;;;;;;17.83;8.55;;;;;;;;;;4947090;28;20278;-78
2023/01/18 01:56:42;;;;;;;18.15;8.07;;;;;;;;;;4964510;28;20062;-79
2023/01/18 01:59:08;;;;;;;20.35;9.10;;;;;;;;;;4982924;28;20039;-78
2023/01/18 02:01:35;;;;;;;21.58;8.80;;;;;;;;;;4950758;28;20113;-79
2023/01/18 02:04:01;;;;;;;17.98;9.18;;;;;;;;;;4948957;28;20122;-78
2023/01/18 02:06:32;;;;;;;26.13;8.45;;;;;;;;;;4930615;29;20039;-78
2023/01/18 02:09:03;;;;;;;22.65;8.07;;;;;;;;;;4948229;28;20042;-79
2023/01/18 02:11:28;;;;;;;18.10;9.05;;;;;;;;;;4930294;29;20035;-78
2023/01/18 02:13:57;;;;;;;21.15;9.20;;;;;;;;;;4931527;28;20027;-78
2023/01/18 02:16:47;;;;;;;20.15;8.50;;;;;;;;;;4967345;28;20030;-79
2023/01/18 02:19:15;;;;;;;20.08;8.80;;;;;;;;;;4967167;28;20094;-78
2023/01/18 02:21:46;;;;;;;26.80;10.10;;;;;;;;;;4966529;28;20117;-79
2023/01/18 02:24:32;;;;;;;18.48;10.25;;;;;;;;;;4950582;28;20042;-79
2023/01/18 02:27:05;;;;;;;21.30;8.70;;;;;;;;;;4967279;28;20042;-79
2023/01/18 02:29:36;;;;;;;13.85;8.48;;;;;;;;;;4967061;28;20125;-78
2023/01/18 02:32:21;;;;;;;20.80;9.02;;;;;;;;;;4966801;28;20660;-78
2023/01/18 02:34:49;;;;;;;14.40;7.90;;;;;;;;;;4952415;28;20035;-79
2023/01/18 02:37:24;;;;;;;15.85;7.60;;;;;;;;;;4947526;29;20400;-79
2023/01/18 02:40:03;;;;;;;10.95;7.30;;;;;;;;;;4947846;28;20075;-78
2023/01/18 02:48:06;;;;;;;11.95;6.18;;;;;;;;;;4947997;28;20523;-78
2023/01/18 02:50:31;;;;;;;14.10;7.63;;;;;;;;;;4946890;29;20043;-79
2023/01/18 02:52:57;;;;;;;18.85;8.00;;;;;;;;;;4944915;28;20019;-79
2023/01/18 02:55:40;;;;;;;15.23;7.40;;;;;;;;;;4987210;28;20053;-78
2023/01/18 02:58:13;;;;;;;18.08;6.78;;;;;;;;;;4985950;28;20050;-79
2023/01/18 03:00:43;;;;;;;17.65;7.82;;;;;;;;;;4949977;28;20039;-79
2023/01/18 03:03:10;;;;;;;14.48;7.25;;;;;;;;;;4948606;28;20690;-79
2023/01/18 03:05:37;;;;;;;16.00;7.15;;;;;;;;;;4947830;29;20039;-78
2023/01/18 03:08:12;;;;;;;16.70;7.13;;;;;;;;;;4955719;28;20042;-78
2023/01/18 03:10:47;;;;;;;17.40;6.30;;;;;;;;;;4964490;28;20027;-78
2023/01/18 03:13:24;;;;;;;13.45;6.60;;;;;;;;;;4969683;28;20055;-79
2023/01/18 03:15:55;;;;;;;21.13;7.43;;;;;;;;;;4970270;28;20523;-79
2023/01/18 03:18:58;;;;;;;18.80;8.43;;;;;;;;;;4952787;28;20074;-78
2023/01/18 03:21:46;;;;;;;12.53;6.77;;;;;;;;;;4966340;28;20042;-78
2023/01/18 03:24:13;;;;;;;16.70;6.97;;;;;;;;;;4966777;28;20023;-78
2023/01/18 03:26:45;;;;;;;13.60;6.47;;;;;;;;;;4969802;28;20043;-79
2023/01/18 03:35:10;;;;;;;16.58;7.78;;;;;;;;;;4962863;28;20138;-78
2023/01/18 03:37:39;;;;;;;14.15;7.07;;;;;;;;;;4951464;29;20020;-78
2023/01/18 03:40:10;;;;;;;19.00;7.63;;;;;;;;;;4949424;28;20039;-79
2023/01/18 03:42:41;;;;;;;14.23;8.35;;;;;;;;;;4957235;28;20684;-78
2023/01/18 03:45:17;;;;;;;20.73;8.75;;;;;;;;;;4956740;28;20130;-78
2023/01/18 03:47:42;;;;;;;17.73;7.57;;;;;;;;;;4950959;28;20082;-78
2023/01/18 03:50:08;;;;;;;25.52;9.05;;;;;;;;;;4933639;28;20051;-77
2023/01/18 03:52:40;;;;;;;19.30;7.60;;;;;;;;;;4973873;28;20022;-78
2023/01/18 03:55:13;;;;;;;15.40;7.57;;;;;;;;;;4972475;28;20108;-78
2023/01/18 03:57:58;;;;;;;19.92;7.57;;;;;;;;;;4971630;28;20495;-78
2023/01/18 04:00:24;;;;;;;14.15;6.28;;;;;;;;;;4989068;28;20557;-78
2023/01/18 04:02:50;;;;;;;17.02;8.20;;;;;;;;;;4971834;28;20411;-78
2023/01/18 04:05:15;;;;;;;15.35;6.93;;;;;;;;;;4960859;28;20511;-79
2023/01/18 04:07:41;;;;;;;18.75;7.82;;;;;;;;;;4965488;28;20165;-78
2023/01/18 04:10:07;;;;;;;17.67;7.38;;;;;;;;;;4969898;28;20073;-79
2023/01/18 04:12:33;;;;;;;16.88;6.07;;;;;;;;;;4968454;28;20039;-78
2023/01/18 04:14:59;;;;;;;19.00;7.32;;;;;;;;;;4968495;28;20049;-78
2023/01/18 04:17:24;;;;;;;14.18;7.72;;;;;;;;;;4952177;28;20034;-78
2023/01/18 04:19:50;;;;;;;23.27;8.07;;;;;;;;;;4950817;28;20026;-78
2023/01/18 04:22:15;;;;;;;15.10;7.82;;;;;;;;;;4969978;28;20019;-78
2023/01/18 04:24:40;;;;;;;22.27;9.05;;;;;;;;;;4952045;28;20054;-78
2023/01/18 04:27:06;;;;;;;16.25;7.90;;;;;;;;;;4958206;28;20461;-78
2023/01/18 04:29:31;;;;;;;20.13;9.13;;;;;;;;;;4949073;29;20390;-79
2023/01/18 04:31:57;;;;;;;21.83;8.02;;;;;;;;;;4932912;28;20027;-78
2023/01/18 04:34:22;;;;;;;21.35;8.93;;;;;;;;;;4950001;29;20019;-79
2023/01/18 04:36:48;;;;;;;16.92;8.23;;;;;;;;;;4932962;29;20039;-78
2023/01/18 04:39:14;;;;;;;20.23;9.50;;;;;;;;;;4956869;28;20097;-78
2023/01/18 04:41:39;;;;;;;22.80;9.20;;;;;;;;;;4967003;28;20039;-78
2023/01/18 04:44:05;;;;;;;21.27;8.85;;;;;;;;;;4955465;28;20122;-78
2023/01/18 04:46:30;;;;;;;20.13;9.55;;;;;;;;;;4964133;28;20389;-78
2023/01/18 04:48:55;;;;;;;27.75;9.07;;;;;;;;;;4964549;28;20035;-78
2023/01/18 04:51:22;;;;;;;21.88;9.20;;;;;;;;;;4952949;28;20035;-78
2023/01/18 04:53:48;;;;;;;16.17;8.05;;;;;;;;;;4969871;28;20042;-78
2023/01/18 04:56:13;;;;;;;18.35;7.55;;;;;;;;;;4970864;28;20040;-78
2023/01/18 04:58:39;;;;;;;16.58;8.90;;;;;;;;;;4988130;28;20104;-79
2023/01/18 05:01:07;;;;;;;27.02;8.82;;;;;;;;;;4987639;28;20451;-79
2023/01/18 05:03:37;;;;;;;15.90;8.25;;;;;;;;;;4986053;28;20038;-79
2023/01/18 05:06:08;;;;;;;17.10;8.52;;;;;;;;;;4987572;28;20034;-78
2023/01/18 05:08:33;;;;;;;12.88;7.97;;;;;;;;;;4987741;28;20548;-78
2023/01/18 05:11:02;;;;;;;14.98;8.95;;;;;;;;;;4988107;28;20093;-78
2023/01/18 05:13:27;;;;;;;20.88;8.50;;;;;;;;;;4970972;28;20090;-79
2023/01/18 05:15:52;;;;;;;17.17;8.27;;;;;;;;;;4970633;28;20066;-79
2023/01/18 05:18:18;;;;;;;16.17;8.38;;;;;;;;;;4968213;28;20459;-79
2023/01/18 05:20:43;;;;;;;17.48;8.27;;;;;;;;;;4967720;28;20458;-79
2023/01/18 05:23:09;;;;;;;18.48;7.78;;;;;;;;;;4967898;28;20063;-78
2023/01/18 05:25:34;;;;;;;19.88;9.32;;;;;;;;;;4968253;28;20031;-79
2023/01/18 05:28:00;;;;;;;21.60;8.98;;;;;;;;;;4968100;28;20038;-79
2023/01/18 05:30:25;;;;;;;18.30;8.55;;;;;;;;;;4966679;28;20645;-79
2023/01/18 05:32:50;;;;;;;18.85;8.13;;;;;;;;;;4962862;28;20043;-79
2023/01/18 05:35:16;;;;;;;15.02;7.15;;;;;;;;;;4967689;28;20042;-79
2023/01/18 05:37:41;;;;;;;16.73;7.13;;;;;;;;;;4967424;28;20070;-78
2023/01/18 05:40:08;;;;;;;22.50;7.30;;;;;;;;;;4950338;28;20028;-79
2023/01/18 05:42:33;;;;;;;21.05;9.48;;;;;;;;;;4967514;28;20077;-79
2023/01/18 05:44:58;;;;;;;17.67;8.35;;;;;;;;;;4967693;28;20047;-79
2023/01/18 05:47:24;;;;;;;17.25;9.05;;;;;;;;;;4966966;28;20039;-79
2023/01/18 05:49:49;;;;;;;21.45;9.82;;;;;;;;;;4949416;28;20416;-79
2023/01/18 05:52:15;;;;;;;17.08;8.95;;;;;;;;;;4968359;28;20057;-79
2023/01/18 05:54:41;;;;;;;15.68;9.23;;;;;;;;;;4987106;28;20065;-78
2023/01/18 05:57:06;;;;;;;20.17;9.27;;;;;;;;;;4986234;28;20207;-79
2023/01/18 05:59:31;;;;;;;18.52;8.65;;;;;;;;;;4969514;28;20057;-78
2023/01/18 06:01:57;;;;;;;22.77;9.43;;;;;;;;;;4968953;28;20026;-79
2023/01/18 06:04:22;;;;;;;20.38;10.43;;;;;;;;;;4986111;28;20381;-78
2023/01/18 06:06:47;;;;;;;26.65;8.70;;;;;;;;;;4986765;28;20038;-79
2023/01/18 06:09:13;;;;;;;15.48;8.10;;;;;;;;;;4986458;28;20030;-79
2023/01/18 06:11:38;;;;;;;17.33;8.02;;;;;;;;;;4969065;28;20042;-79
2023/01/18 06:14:03;;;;;;;20.02;8.93;;;;;;;;;;4951267;28;20042;-79
2023/01/18 06:16:29;;;;;;;13.95;7.85;;;;;;;;;;4966931;28;20037;-79
2023/01/18 06:18:54;;;;;;;14.48;8.25;;;;;;;;;;4948782;28;20043;-77
2023/01/18 06:21:19;;;;;;;15.25;8.30;;;;;;;;;;4949725;28;20050;-79
2023/01/18 06:23:44;;;;;;;25.60;8.88;;;;;;;;;;4966712;28;20125;-79
2023/01/18 06:26:10;;;;;;;17.90;9.50;;;;;;;;;;4966726;28;20088;-78
2023/01/18 06:28:35;;;;;;;18.70;8.88;;;;;;;;;;4967810;28;20030;-79
2023/01/18 06:31:03;;;;;;;15.75;8.52;;;;;;;;;;4967514;28;20042;-79
2023/01/18 06:33:29;;;;;;;12.80;7.82;;;;;;;;;;4949021;28;20042;-78
2023/01/18 06:35:54;;;;;;;27.38;11.43;;;;;;;;;;4967028;28;20185;-79
2023/01/18 06:38:19;;;;;;;34.63;12.27;;;;;;;;;;4967114;28;20077;-79
2023/01/18 06:40:44;;;;;;;36.22;11.15;;;;;;;;;;4949132;28;20031;-79
2023/01/18 06:43:12;;;;;;;24.73;11.18;;;;;;;;;;4949940;28;20031;-79
2023/01/18 06:45:38;;;;;;;41.30;15.65;;;;;;;;;;4966203;28;20055;-78
2023/01/18 06:48:03;;;;;;;41.30;15.80;;;;;;;;;;4966793;28;20039;-79
2023/01/18 06:50:29;;;;;;;31.75;13.40;;;;;;;;;;4966470;28;20046;-79
2023/01/18 06:52:54;;;;;;;28.30;9.77;;;;;;;;;;4970774;28;20113;-78
2023/01/18 06:55:20;;;;;;;19.88;8.98;;;;;;;;;;4963855;28;20554;-78
2023/01/18 06:57:46;;;;;;;18.90;8.32;;;;;;;;;;4949124;28;20038;-79
2023/01/18 07:00:13;;;;;;;21.23;10.63;;;;;;;;;;4949045;28;20038;-78
2023/01/18 07:02:38;;;;;;;20.75;8.98;;;;;;;;;;4965688;28;20163;-79
2023/01/18 07:05:04;;;;;;;16.83;9.55;;;;;;;;;;4964275;28;20076;-79
2023/01/18 07:07:30;;;;;;;21.73;9.60;;;;;;;;;;4966102;28;20031;-78
2023/01/18 07:09:56;;;;;;;24.73;10.95;;;;;;;;;;4965336;28;20508;-78
2023/01/18 07:12:21;;;;;;;27.58;10.65;;;;;;;;;;4966441;28;20042;-78
2023/01/18 07:14:47;;;;;;;21.92;9.23;;;;;;;;;;4963605;28;20077;-78
2023/01/18 07:17:13;;;;;;;17.02;8.13;;;;;;;;;;4966171;28;20039;-78
2023/01/18 07:19:38;;;;;;;18.98;9.38;;;;;;;;;;4964932;28;20041;-78
2023/01/18 07:22:04;;;;;;;23.92;9.30;;;;;;;;;;4951232;28;20035;-78
2023/01/18 07:24:29;;;;;;;17.55;9.10;;;;;;;;;;4956574;28;20038;-79
2023/01/18 07:26:55;;;;;;;118.93;56.60;;;;;;;;;;4964081;28;20499;-79
2023/01/18 07:29:21;;;;;;;38.13;16.65;;;;;;;;;;4978845;28;20153;-79
2023/01/18 07:31:46;;;;;;;16.30;9.20;;;;;;;;;;4965294;28;20085;-78
2023/01/18 07:34:12;;;;;;;19.48;8.95;;;;;;;;;;4965269;28;20041;-79
2023/01/18 07:36:38;;;;;;;19.88;10.30;;;;;;;;;;4963148;28;20039;-78
2023/01/18 07:39:05;;;;;;;17.13;9.20;;;;;;;;;;4963915;28;20459;-78
2023/01/18 07:41:30;;;;;;;19.95;10.05;;;;;;;;;;4944936;28;20050;-78
2023/01/18 07:43:56;;;;;;;14.68;7.68;;;;;;;;;;4965805;28;20138;-78
2023/01/18 07:46:21;;;;;;;19.55;8.13;;;;;;;;;;4966013;28;20081;-78
2023/01/18 07:48:47;;;;;;;20.05;9.57;;;;;;;;;;4947963;28;20516;-79
2023/01/18 07:51:13;;;;;;;14.85;7.55;;;;;;;;;;4965314;28;20090;-78
2023/01/18 07:53:38;;;;;;;20.50;8.50;;;;;;;;;;4962107;28;20038;-78
2023/01/18 07:56:12;;;;;;;16.45;8.65;;;;;;;;;;4988481;28;20411;-78
2023/01/18 07:58:38;;;;;;;14.38;7.45;;;;;;;;;;4986807;28;20038;-84
2023/01/18 08:01:11;;;;;;;14.65;7.75;;;;;;;;;;4987648;28;20084;-78
2023/01/18 08:03:36;;;;;;;19.02;7.97;;;;;;;;;;4987735;28;20585;-78
2023/01/18 08:06:04;;;;;;;13.00;7.22;;;;;;;;;;4987908;28;20058;-78
2023/01/18 08:08:30;;;;;;;15.65;7.65;;;;;;;;;;4967806;28;20049;-79
2023/01/18 08:10:57;;;;;;;15.63;8.13;;;;;;;;;;4987891;28;20220;-78
2023/01/18 08:13:23;;;;;;;18.70;7.43;;;;;;;;;;4970541;28;20034;-79
2023/01/18 08:15:49;;;;;;;18.73;8.77;;;;;;;;;;4970771;28;20126;-78
2023/01/18 08:18:14;;;;;;;15.00;7.43;;;;;;;;;;4950927;28;20122;-78
2023/01/18 08:20:47;;;;;;;15.02;8.45;;;;;;;;;;4969041;28;20043;-78
2023/01/18 08:23:13;;;;;;;12.97;7.23;;;;;;;;;;4969236;28;20030;-78
2023/01/18 08:25:39;;;;;;;15.05;7.32;;;;;;;;;;4951812;28;20322;-79
2023/01/18 08:28:04;;;;;;;14.70;7.90;;;;;;;;;;4965404;28;20061;-79
2023/01/18 08:30:42;;;;;;;21.17;7.63;;;;;;;;;;4951875;28;20046;-79
2023/01/18 08:33:08;;;;;;;12.93;6.20;;;;;;;;;;4968262;28;20563;-78
2023/01/18 08:35:42;;;;;;;15.75;7.28;;;;;;;;;;4967952;28;20163;-79
2023/01/18 08:38:08;;;;;;;16.65;7.18;;;;;;;;;;4967958;28;20114;-78
2023/01/18 08:40:34;;;;;;;14.05;7.60;;;;;;;;;;4959794;28;20129;-78
2023/01/18 08:43:01;;;;;;;14.10;6.15;;;;;;;;;;4945024;28;20131;-79
2023/01/18 08:45:27;;;;;;;21.67;8.05;;;;;;;;;;4959780;28;20054;-78
2023/01/18 08:48:08;;;;;;;18.35;7.13;;;;;;;;;;4963993;28;20102;-77
2023/01/18 08:50:34;;;;;;;15.10;6.63;;;;;;;;;;4967238;28;20035;-78
2023/01/18 08:53:01;;;;;;;15.63;7.85;;;;;;;;;;4938743;28;20049;-78
2023/01/18 08:55:28;;;;;;;31.63;11.23;;;;;;;;;;4964044;28;20038;-78
2023/01/18 08:57:54;;;;;;;18.88;10.00;;;;;;;;;;4946729;28;20039;-78
2023/01/18 09:00:22;;;;;;;20.95;8.68;;;;;;;;;;4956975;28;20035;-78
2023/01/18 09:02:48;;;;;;;15.75;7.07;;;;;;;;;;4966901;28;20216;-79
2023/01/18 09:05:13;;;;;;;17.88;8.32;;;;;;;;;;4966351;28;20038;-78
2023/01/18 09:07:38;;;;;;;17.58;8.52;;;;;;;;;;4951180;28;20030;-79
2023/01/18 09:10:04;;;;;;;15.00;6.40;;;;;;;;;;4950915;28;20046;-79
2023/01/18 09:12:30;;;;;;;13.05;6.80;;;;;;;;;;4968822;28;20049;-78
2023/01/18 09:14:55;;;;;;;20.75;6.40;;;;;;;;;;4967858;28;20035;-78
2023/01/18 09:17:20;;;;;;;16.00;8.07;;;;;;;;;;4967318;28;20050;-79
2023/01/18 09:19:46;;;;;;;14.70;6.78;;;;;;;;;;4968069;28;20046;-78
2023/01/18 09:22:11;;;;;;;12.65;7.03;;;;;;;;;;4968835;28;20539;-79
2023/01/18 09:24:37;;;;;;;16.08;7.82;;;;;;;;;;4951600;28;20042;-78
2023/01/18 09:27:04;;;;;;;16.77;8.40;;;;;;;;;;4945531;28;20113;-80
2023/01/18 09:29:30;;;;;;;15.40;7.03;;;;;;;;;;4958417;28;20035;-79
2023/01/18 09:31:56;;;;;;;15.50;8.00;;;;;;;;;;4938583;28;20703;-79
2023/01/18 09:34:21;;;;;;;19.00;8.63;;;;;;;;;;4961725;28;20159;-78
2023/01/18 09:36:51;;;;;;;16.73;7.50;;;;;;;;;;4967498;28;20030;-79
2023/01/18 09:39:17;;;;;;;13.38;7.60;;;;;;;;;;4967563;28;20072;-79
2023/01/18 09:41:49;;;;;;;14.23;6.50;;;;;;;;;;4967860;28;20035;-79
2023/01/18 09:44:23;;;;;;;18.55;7.20;;;;;;;;;;4968134;28;20047;-79
2023/01/18 09:46:53;;;;;;;10.20;5.38;;;;;;;;;;4967518;28;20606;-78
2023/01/18 09:49:26;;;;;;;13.75;6.72;;;;;;;;;;4967938;28;20027;-78
2023/01/18 09:52:13;;;;;;;14.18;6.03;;;;;;;;;;4950533;28;20035;-79
2023/01/18 09:55:08;;;;;;;15.18;6.53;;;;;;;;;;4947235;28;20627;-78
2023/01/18 09:57:51;;;;;;;17.80;8.90;;;;;;;;;;4933027;29;20117;-78
2023/01/18 10:00:26;;;;;;;13.88;6.50;;;;;;;;;;4948410;28;20035;-77
2023/01/18 10:02:55;;;;;;;16.48;7.55;;;;;;;;;;4947103;28;20039;-78
2023/01/18 10:05:25;;;;;;;18.00;8.27;;;;;;;;;;4961981;28;20039;-78
2023/01/18 10:08:01;;;;;;;20.75;8.55;;;;;;;;;;4947226;28;20109;-78
2023/01/18 10:10:30;;;;;;;19.35;7.72;;;;;;;;;;4954573;28;20610;-78
2023/01/18 10:13:22;;;;;;;22.15;9.43;;;;;;;;;;4982341;28;20081;-79
2023/01/18 10:15:48;;;;;;;14.45;7.95;;;;;;;;;;4969076;28;20570;-78
2023/01/18 10:18:15;;;;;;;17.55;8.65;;;;;;;;;;4966341;28;20042;-78
2023/01/18 10:20:43;;;;;;;20.55;7.22;;;;;;;;;;4949566;28;20039;-78
2023/01/18 10:23:24;;;;;;;22.10;7.93;;;;;;;;;;4966676;28;20046;-78
2023/01/18 10:25:54;;;;;;;12.43;6.88;;;;;;;;;;4967399;28;20407;-78
2023/01/18 10:28:46;;;;;;;15.90;7.13;;;;;;;;;;4967828;28;20545;-79
2023/01/18 10:31:30;;;;;;;19.95;8.73;;;;;;;;;;4981387;28;20043;-78
2023/01/18 10:33:59;;;;;;;18.45;7.38;;;;;;;;;;4948181;28;20031;-78
2023/01/18 10:36:32;;;;;;;21.05;7.40;;;;;;;;;;4949606;28;20039;-78
2023/01/18 10:38:59;;;;;;;19.55;8.13;;;;;;;;;;4952875;28;20034;-78
2023/01/18 10:41:30;;;;;;;15.35;7.07;;;;;;;;;;4984018;28;20034;-79
2023/01/18 10:43:55;;;;;;;11.20;5.75;;;;;;;;;;4968485;28;20030;-79
2023/01/18 10:46:21;;;;;;;17.20;7.53;;;;;;;;;;4985714;28;20093;-79
2023/01/18 10:48:51;;;;;;;13.02;6.45;;;;;;;;;;4967999;28;20077;-79
2023/01/18 10:51:29;;;;;;;19.15;7.82;;;;;;;;;;4980983;28;20069;-80
2023/01/18 10:53:56;;;;;;;18.73;7.50;;;;;;;;;;4971972;28;20038;-79
2023/01/18 10:56:24;;;;;;;16.50;6.72;;;;;;;;;;4950396;28;20676;-79
2023/01/18 10:58:49;;;;;;;13.00;5.10;;;;;;;;;;4966909;28;20039;-80
2023/01/18 11:01:24;;;;;;;15.13;6.03;;;;;;;;;;4967423;28;20514;-79
2023/01/18 11:04:06;;;;;;;17.50;8.20;;;;;;;;;;4948920;28;20128;-80
2023/01/18 11:06:49;;;;;;;17.50;7.18;;;;;;;;;;4966151;28;20125;-79
2023/01/18 11:09:33;;;;;;;16.10;6.28;;;;;;;;;;4960260;28;20043;-83
2023/01/18 11:15:12;;;;;;;12.60;5.63;;;;;;;;;;4964438;28;20065;-82
2023/01/18 11:18:02;;;;;;;13.13;7.15;;;;;;;;;;4949546;28;20162;-81
2023/01/18 11:20:47;;;;;;;11.20;5.95;;;;;;;;;;4964389;28;20035;-82
2023/01/18 11:23:20;;;;;;;14.38;6.90;;;;;;;;;;4962011;28;20038;-81
2023/01/18 11:25:45;;;;;;;;;;;;;;;;;;4946838;28;20077;-82
2023/01/18 11:28:18;;;;;;;10.35;5.07;;;;;;;;;;4967362;28;19914;-80
2023/01/18 11:31:12;;;;;;;13.02;5.05;;;;;;;;;;4953129;28;20105;-80
2023/01/18 11:33:55;;;;;;;14.98;6.10;;;;;;;;;;4969577;28;20052;-80
2023/01/18 11:36:34;;;;;;;15.70;6.63;;;;;;;;;;4970604;28;20042;-80
2023/01/18 11:39:25;;;;;;;8.50;4.68;;;;;;;;;;4970593;28;20027;-81
2023/01/18 11:42:08;;;;;;;14.43;6.70;;;;;;;;;;4965313;28;20558;-81
2023/01/18 11:44:35;;;;;;;12.23;5.90;;;;;;;;;;4970205;28;20762;-80
2023/01/18 11:47:04;;;;;;;11.52;5.60;;;;;;;;;;4970324;28;20050;-80
2023/01/18 11:49:41;;;;;;;16.55;5.80;;;;;;;;;;4971022;28;20038;-80
2023/01/18 11:52:23;;;;;;;12.02;5.40;;;;;;;;;;4968079;28;20043;-80
2023/01/18 11:54:52;;;;;;;13.98;5.68;;;;;;;;;;4969592;28;20039;-80
2023/01/18 11:57:18;;;;;;;13.32;5.03;;;;;;;;;;4969198;28;20043;-80
2023/01/18 11:59:45;;;;;;;10.10;5.07;;;;;;;;;;4985288;28;20035;-80
2023/01/18 12:02:30;;;;;;;12.43;4.88;;;;;;;;;;4970002;28;20034;-80
2023/01/18 12:05:32;;;;;;;14.20;5.90;;;;;;;;;;4970415;28;20080;-80
2023/01/18 12:08:12;;;;;;;12.98;5.72;;;;;;;;;;4968121;28;20089;-79
2023/01/18 12:11:12;;;;;;;14.20;7.03;;;;;;;;;;4966033;28;20031;-79
2023/01/18 12:13:45;;;;;;;19.58;5.43;;;;;;;;;;4943179;28;20146;-79
2023/01/18 12:16:18;;;;;;;14.93;5.75;;;;;;;;;;4949666;29;20038;-79
2023/01/18 12:19:05;;;;;;;12.43;5.60;;;;;;;;;;4950382;28;20519;-79
2023/01/18 12:22:02;;;;;;;12.80;5.70;;;;;;;;;;4949952;28;20047;-79
2023/01/18 12:24:46;;;;;;;13.57;4.60;;;;;;;;;;4949137;28;20046;-79
2023/01/18 12:27:30;;;;;;;10.13;4.88;;;;;;;;;;4963688;28;20057;-79
2023/01/18 12:30:06;;;;;;;12.38;6.30;;;;;;;;;;4965779;28;20081;-78
2023/01/18 12:32:46;;;;;;;14.35;6.20;;;;;;;;;;4966259;28;20538;-78
2023/01/18 12:35:12;;;;;;;11.98;5.22;;;;;;;;;;4947568;28;20461;-78
2023/01/18 12:37:55;;;;;;;11.57;5.47;;;;;;;;;;4965108;28;20412;-79
2023/01/18 12:40:34;;;;;;;12.32;4.90;;;;;;;;;;4960231;28;20142;-79
2023/01/18 12:43:09;;;;;;;9.35;5.13;;;;;;;;;;4971670;28;20491;-78
2023/01/18 12:45:39;;;;;;;15.35;6.22;;;;;;;;;;4965843;28;20527;-78
2023/01/18 12:48:17;;;;;;;10.88;5.75;;;;;;;;;;4964387;28;20062;-78
2023/01/18 12:50:45;;;;;;;10.93;4.93;;;;;;;;;;4951606;28;20038;-78
2023/01/18 12:53:21;;;;;;;11.13;5.20;;;;;;;;;;4960341;28;20034;-77
2023/01/18 12:55:52;;;;;;;11.02;4.88;;;;;;;;;;4979045;28;20054;-78
2023/01/18 12:58:22;;;;;;;15.13;5.35;;;;;;;;;;4967141;28;20455;-77
2023/01/18 13:00:56;;;;;;;14.63;5.85;;;;;;;;;;4968470;28;20062;-78
2023/01/18 13:03:28;;;;;;;12.05;5.15;;;;;;;;;;4967206;28;20097;-78
2023/01/18 13:06:01;;;;;;;12.80;5.20;;;;;;;;;;4967974;28;20115;-78
2023/01/18 13:08:31;;;;;;;12.20;5.22;;;;;;;;;;4968862;28;20482;-78
2023/01/18 13:11:07;;;;;;;12.57;6.05;;;;;;;;;;4966569;28;20035;-78
2023/01/18 13:13:34;;;;;;;8.57;4.78;;;;;;;;;;4964819;28;20042;-78
2023/01/18 13:16:18;;;;;;;11.48;5.07;;;;;;;;;;4950318;28;20066;-78
2023/01/18 13:18:58;;;;;;;10.18;4.95;;;;;;;;;;4961449;28;20051;-77
2023/01/18 13:21:47;;;;;;;8.23;4.53;;;;;;;;;;4960270;28;20066;-79
2023/01/18 13:24:29;;;;;;;16.08;4.78;;;;;;;;;;4953507;28;20110;-78
2023/01/18 13:27:12;;;;;;;12.23;4.80;;;;;;;;;;4950678;28;20031;-78
2023/01/18 13:29:39;;;;;;;10.32;4.57;;;;;;;;;;4951127;28;20096;-78
2023/01/18 13:32:19;;;;;;;11.43;5.03;;;;;;;;;;4966986;28;20039;-77
2023/01/18 13:34:55;;;;;;;6.95;4.03;;;;;;;;;;4950236;28;20038;-78
2023/01/18 13:37:50;;;;;;;7.57;4.43;;;;;;;;;;4968058;28;20109;-78
2023/01/18 13:40:40;;;;;;;6.05;4.13;;;;;;;;;;4963911;28;20055;-78
2023/01/18 13:43:37;;;;;;;9.73;3.65;;;;;;;;;;4967268;28;20038;-78
2023/01/18 13:46:17;;;;;;;7.10;3.75;;;;;;;;;;4967323;28;20062;-78
2023/01/18 13:49:01;;;;;;;10.25;4.13;;;;;;;;;;4950515;28;20084;-78
2023/01/18 13:51:35;;;;;;;9.02;2.97;;;;;;;;;;4967574;28;20416;-78
2023/01/18 13:54:01;;;;;;;9.93;3.97;;;;;;;;;;4955691;28;20467;-78
2023/01/18 13:56:27;;;;;;;20.80;5.13;;;;;;;;;;4948158;28;20035;-79
2023/01/18 13:59:10;;;;;;;24.45;4.63;;;;;;;;;;4966713;28;20022;-78
2023/01/18 14:01:38;;;;;;;8.68;3.72;;;;;;;;;;4964929;28;20396;-80
2023/01/18 14:04:07;;;;;;;9.30;4.70;;;;;;;;;;4966447;28;20411;-78
2023/01/18 14:06:42;;;;;;;8.20;3.10;;;;;;;;;;4966150;28;20634;-78
2023/01/18 14:09:13;;;;;;;6.00;2.90;;;;;;;;;;4963198;28;20034;-78
2023/01/18 14:11:44;;;;;;;5.80;3.38;;;;;;;;;;4982992;28;20097;-78
2023/01/18 14:14:14;;;;;;;10.48;4.20;;;;;;;;;;4967402;28;20038;-78
2023/01/18 14:16:55;;;;;;;7.90;3.85;;;;;;;;;;4950726;28;20449;-78
2023/01/18 14:19:22;;;;;;;9.75;4.13;;;;;;;;;;4944539;28;20047;-78
2023/01/18 14:22:02;;;;;;;8.50;3.63;;;;;;;;;;4949075;28;20087;-78
2023/01/18 14:25:06;;;;;;;8.07;4.15;;;;;;;;;;4948015;28;20042;-78
2023/01/18 14:27:43;;;;;;;8.85;4.30;;;;;;;;;;4943862;28;20068;-78
2023/01/18 14:30:31;;;;;;;10.13;4.13;;;;;;;;;;4930674;29;20058;-78
2023/01/18 14:33:07;;;;;;;12.50;4.32;;;;;;;;;;4948273;28;20035;-78
2023/01/18 14:35:32;;;;;;;7.53;4.07;;;;;;;;;;4948015;28;20035;-78
2023/01/18 14:38:06;;;;;;;7.47;3.90;;;;;;;;;;4948243;28;20041;-78
2023/01/18 14:40:32;;;;;;;7.93;3.60;;;;;;;;;;4951063;28;20046;-78
2023/01/18 14:43:00;;;;;;;7.07;3.90;;;;;;;;;;4964877;28;20039;-78
2023/01/18 14:45:29;;;;;;;9.90;4.10;;;;;;;;;;4942194;28;20469;-78
2023/01/18 14:47:59;;;;;;;10.05;4.28;;;;;;;;;;4948073;28;20110;-78
2023/01/18 14:50:26;;;;;;;7.25;3.75;;;;;;;;;;4947582;28;20539;-77
2023/01/18 14:52:52;;;;;;;9.20;4.43;;;;;;;;;;4937682;28;20038;-78
2023/01/18 14:55:27;;;;;;;9.52;4.30;;;;;;;;;;4946596;28;20023;-78
2023/01/18 14:58:00;;;;;;;7.68;4.25;;;;;;;;;;4911201;29;20064;-78
2023/01/18 15:00:27;;;;;;;7.70;3.97;;;;;;;;;;4911406;29;20035;-78
2023/01/18 15:02:52;;;;;;;11.93;4.30;;;;;;;;;;4910367;29;20539;-77
2023/01/18 15:05:19;;;;;;;10.52;4.25;;;;;;;;;;4927487;29;20036;-77
2023/01/18 15:07:48;;;;;;;9.25;4.15;;;;;;;;;;4928654;29;20024;-78
2023/01/18 15:10:17;;;;;;;8.38;4.13;;;;;;;;;;4928835;29;20031;-77
2023/01/18 15:12:47;;;;;;;8.13;3.25;;;;;;;;;;4927248;29;20036;-78
2023/01/18 15:15:31;;;;;;;8.27;4.25;;;;;;;;;;4940152;28;20194;-78
2023/01/18 15:18:04;;;;;;;10.60;4.65;;;;;;;;;;4930788;29;20066;-78
2023/01/18 15:20:29;;;;;;;9.55;4.47;;;;;;;;;;4947803;28;20035;-78
2023/01/18 15:22:55;;;;;;;14.10;3.75;;;;;;;;;;4948128;29;20034;-78
2023/01/18 15:25:27;;;;;;;10.93;3.67;;;;;;;;;;4946890;29;20015;-77